Main page
METAR-TAF:

METAR-TAF

Airports :

Humberside Airport

Humberside, England

latitude: 53-35N, longitude: 000-21W, elevation: 31 m

Current weather observation

The report was made 21 minutes ago, at 23:20 UTC
Wind 13 kt from the Southwest
Temperature 8°C
Humidity 81%
Pressure 1002 hPa
Visibility 10 km or more

METAR: EGNJ 282320Z AUTO 22013KT 9999 FEW033/// 08/05 Q1002

Time: 23:41 (23:41 UTC)

Forecast

The report was made 44 minutes ago, at 22:57 UTC
Forecast valid from 29 at 00 UTC to 29 at 09 UTC
Wind 9 kt from the Southwest
Visibility 10 km or more
Few clouds at a height of 3000 ft
Temporary
from 29 at 08 UTC to 29 at 09 UTC
Visibility: 7000 m
rain

TAF: EGNJ 282257Z 2900/2909 23009KT 9999 FEW030 TEMPO 2908/2909 7000 RA

Weather observations and forecasts of more than 4000 airports (METAR and TAF reports).

The available stations are represented by yellow and red dots on the map.

Hover mouse over dot to see the name of the station.

Then click to see weather observations and forecasts.

To change the map : click on the green buttons with a black cross to zoom in, on the green button with a dash to zoom out, or on the green arrows for adjacent maps.


METAR-TAF: